sensor_id;sensor_type;location;lat;lon;timestamp;temperature;humidity
8715;DHT22;4394;51.208;8.904;2023-07-29T00:02:42;19.70;99.90
8715;DHT22;4394;51.208;8.904;2023-07-29T00:05:31;19.60;99.90
8715;DHT22;4394;51.208;8.904;2023-07-29T00:08:19;19.60;99.90
8715;DHT22;4394;51.208;8.904;2023-07-29T00:11:07;19.60;99.90
8715;DHT22;4394;51.208;8.904;2023-07-29T00:13:55;19.70;99.90
8715;DHT22;4394;51.208;8.904;2023-07-29T00:16:43;19.60;99.90
8715;DHT22;4394;51.208;8.904;2023-07-29T00:19:33;19.60;99.90
8715;DHT22;4394;51.208;8.904;2023-07-29T00:22:21;19.60;99.90
8715;DHT22;4394;51.208;8.904;2023-07-29T00:25:09;19.60;99.90
8715;DHT22;4394;51.208;8.904;2023-07-29T00:27:58;19.70;99.90
8715;DHT22;4394;51.208;8.904;2023-07-29T00:30:46;19.70;99.90
8715;DHT22;4394;51.208;8.904;2023-07-29T00:33:34;19.70;99.90
8715;DHT22;4394;51.208;8.904;2023-07-29T00:36:24;19.70;99.90
8715;DHT22;4394;51.208;8.904;2023-07-29T00:39:12;19.70;99.90
8715;DHT22;4394;51.208;8.904;2023-07-29T00:42:00;19.70;99.90
8715;DHT22;4394;51.208;8.904;2023-07-29T00:44:48;19.70;99.90
8715;DHT22;4394;51.208;8.904;2023-07-29T00:47:37;19.70;99.90
8715;DHT22;4394;51.208;8.904;2023-07-29T00:50:26;19.70;99.90
8715;DHT22;4394;51.208;8.904;2023-07-29T00:53:16;19.60;99.90
8715;DHT22;4394;51.208;8.904;2023-07-29T00:56:04;19.60;99.90
8715;DHT22;4394;51.208;8.904;2023-07-29T00:58:53;19.60;99.90
8715;DHT22;4394;51.208;8.904;2023-07-29T01:01:45;19.60;99.90
8715;DHT22;4394;51.208;8.904;2023-07-29T01:04:34;20.00;99.90
8715;DHT22;4394;51.208;8.904;2023-07-29T01:07:26;19.80;99.90
8715;DHT22;4394;51.208;8.904;2023-07-29T01:10:22;19.80;99.90
8715;DHT22;4394;51.208;8.904;2023-07-29T01:13:19;19.70;99.90
8715;DHT22;4394;51.208;8.904;2023-07-29T01:16:11;19.60;99.90
8715;DHT22;4394;51.208;8.904;2023-07-29T01:19:03;19.60;99.90
8715;DHT22;4394;51.208;8.904;2023-07-29T01:21:52;19.60;99.90
8715;DHT22;4394;51.208;8.904;2023-07-29T01:24:42;19.60;99.90
8715;DHT22;4394;51.208;8.904;2023-07-29T01:27:30;19.60;99.90
8715;DHT22;4394;51.208;8.904;2023-07-29T01:30:18;19.60;99.90
8715;DHT22;4394;51.208;8.904;2023-07-29T01:33:12;19.60;99.90
8715;DHT22;4394;51.208;8.904;2023-07-29T01:36:04;19.60;99.90
8715;DHT22;4394;51.208;8.904;2023-07-29T01:38:56;19.60;99.90
8715;DHT22;4394;51.208;8.904;2023-07-29T01:41:46;19.50;99.90
8715;DHT22;4394;51.208;8.904;2023-07-29T01:44:36;19.50;99.90
8715;DHT22;4394;51.208;8.904;2023-07-29T01:47:24;19.50;99.90
8715;DHT22;4394;51.208;8.904;2023-07-29T01:50:12;19.50;99.90
8715;DHT22;4394;51.208;8.904;2023-07-29T01:53:00;19.50;99.90
8715;DHT22;4394;51.208;8.904;2023-07-29T01:55:49;19.50;99.90
8715;DHT22;4394;51.208;8.904;2023-07-29T01:58:38;19.50;99.90
8715;DHT22;4394;51.208;8.904;2023-07-29T02:01:26;19.50;99.90
8715;DHT22;4394;51.208;8.904;2023-07-29T02:04:14;19.50;99.90
8715;DHT22;4394;51.208;8.904;2023-07-29T02:07:02;19.50;99.90
8715;DHT22;4394;51.208;8.904;2023-07-29T02:09:50;19.50;99.90
8715;DHT22;4394;51.208;8.904;2023-07-29T02:12:39;19.50;99.90
8715;DHT22;4394;51.208;8.904;2023-07-29T02:15:28;19.50;99.90
8715;DHT22;4394;51.208;8.904;2023-07-29T02:18:16;19.50;99.90
8715;DHT22;4394;51.208;8.904;2023-07-29T02:21:04;19.50;99.90
8715;DHT22;4394;51.208;8.904;2023-07-29T02:23:52;19.50;99.90
8715;DHT22;4394;51.208;8.904;2023-07-29T02:26:41;19.50;99.90
8715;DHT22;4394;51.208;8.904;2023-07-29T02:29:29;19.50;99.90
8715;DHT22;4394;51.208;8.904;2023-07-29T02:32:18;19.50;99.90
8715;DHT22;4394;51.208;8.904;2023-07-29T02:35:07;19.50;99.90
8715;DHT22;4394;51.208;8.904;2023-07-29T02:37:56;19.50;99.90
8715;DHT22;4394;51.208;8.904;2023-07-29T02:40:44;19.50;99.90
8715;DHT22;4394;51.208;8.904;2023-07-29T02:43:32;19.50;99.90
8715;DHT22;4394;51.208;8.904;2023-07-29T02:46:20;19.50;99.90
8715;DHT22;4394;51.208;8.904;2023-07-29T02:49:10;19.50;99.90
8715;DHT22;4394;51.208;8.904;2023-07-29T02:51:58;19.50;99.90
8715;DHT22;4394;51.208;8.904;2023-07-29T02:54:46;19.50;99.90
8715;DHT22;4394;51.208;8.904;2023-07-29T02:57:34;19.50;99.90
8715;DHT22;4394;51.208;8.904;2023-07-29T03:00:22;19.50;99.90
8715;DHT22;4394;51.208;8.904;2023-07-29T03:03:10;19.50;99.90
8715;DHT22;4394;51.208;8.904;2023-07-29T03:06:01;19.50;99.90
8715;DHT22;4394;51.208;8.904;2023-07-29T03:08:49;19.50;99.90
8715;DHT22;4394;51.208;8.904;2023-07-29T03:11:37;19.50;99.90
8715;DHT22;4394;51.208;8.904;2023-07-29T03:14:26;19.50;99.90
8715;DHT22;4394;51.208;8.904;2023-07-29T03:17:14;19.50;99.90
8715;DHT22;4394;51.208;8.904;2023-07-29T03:20:03;19.50;99.90
8715;DHT22;4394;51.208;8.904;2023-07-29T03:22:52;19.50;99.90
8715;DHT22;4394;51.208;8.904;2023-07-29T03:25:40;19.50;99.90
8715;DHT22;4394;51.208;8.904;2023-07-29T03:28:30;19.40;99.90
8715;DHT22;4394;51.208;8.904;2023-07-29T03:31:18;19.40;99.90
8715;DHT22;4394;51.208;8.904;2023-07-29T03:34:07;19.40;99.90
8715;DHT22;4394;51.208;8.904;2023-07-29T03:36:57;19.40;99.90
8715;DHT22;4394;51.208;8.904;2023-07-29T03:39:46;19.50;99.90
8715;DHT22;4394;51.208;8.904;2023-07-29T03:42:34;19.50;99.90
8715;DHT22;4394;51.208;8.904;2023-07-29T03:45:22;19.40;99.90
8715;DHT22;4394;51.208;8.904;2023-07-29T03:48:11;19.40;99.90
8715;DHT22;4394;51.208;8.904;2023-07-29T03:50:59;19.80;99.90
8715;DHT22;4394;51.208;8.904;2023-07-29T03:53:47;19.60;99.90
8715;DHT22;4394;51.208;8.904;2023-07-29T03:56:36;19.50;99.90
8715;DHT22;4394;51.208;8.904;2023-07-29T03:59:25;19.50;99.90
8715;DHT22;4394;51.208;8.904;2023-07-29T04:02:14;19.50;99.90
8715;DHT22;4394;51.208;8.904;2023-07-29T04:05:02;19.50;99.90
8715;DHT22;4394;51.208;8.904;2023-07-29T04:07:50;19.50;99.90
8715;DHT22;4394;51.208;8.904;2023-07-29T04:10:39;19.50;99.90
8715;DHT22;4394;51.208;8.904;2023-07-29T04:13:29;19.50;99.90
8715;DHT22;4394;51.208;8.904;2023-07-29T04:16:17;19.50;99.90
8715;DHT22;4394;51.208;8.904;2023-07-29T04:19:05;19.50;99.90
8715;DHT22;4394;51.208;8.904;2023-07-29T04:21:53;19.50;99.90
8715;DHT22;4394;51.208;8.904;2023-07-29T04:24:41;19.50;99.90
8715;DHT22;4394;51.208;8.904;2023-07-29T04:27:29;19.50;99.90
8715;DHT22;4394;51.208;8.904;2023-07-29T04:30:19;19.50;99.90
8715;DHT22;4394;51.208;8.904;2023-07-29T04:33:07;19.50;99.90
8715;DHT22;4394;51.208;8.904;2023-07-29T04:35:55;19.50;99.90
8715;DHT22;4394;51.208;8.904;2023-07-29T04:38:44;19.40;99.90
8715;DHT22;4394;51.208;8.904;2023-07-29T04:41:32;19.40;99.90
8715;DHT22;4394;51.208;8.904;2023-07-29T04:44:20;19.40;99.90
8715;DHT22;4394;51.208;8.904;2023-07-29T04:47:10;19.40;99.90
8715;DHT22;4394;51.208;8.904;2023-07-29T04:49:58;19.40;99.90
8715;DHT22;4394;51.208;8.904;2023-07-29T04:52:46;19.40;99.90
8715;DHT22;4394;51.208;8.904;2023-07-29T04:55:34;19.40;99.90
8715;DHT22;4394;51.208;8.904;2023-07-29T04:58:22;19.50;99.90
8715;DHT22;4394;51.208;8.904;2023-07-29T05:01:10;19.50;99.90
8715;DHT22;4394;51.208;8.904;2023-07-29T05:04:00;19.60;99.90
8715;DHT22;4394;51.208;8.904;2023-07-29T05:06:48;19.50;99.90
8715;DHT22;4394;51.208;8.904;2023-07-29T05:09:37;19.50;99.90
8715;DHT22;4394;51.208;8.904;2023-07-29T05:12:25;19.50;99.90
8715;DHT22;4394;51.208;8.904;2023-07-29T05:15:13;19.40;99.90
8715;DHT22;4394;51.208;8.904;2023-07-29T05:18:01;19.50;99.90
8715;DHT22;4394;51.208;8.904;2023-07-29T05:20:51;19.50;99.90
8715;DHT22;4394;51.208;8.904;2023-07-29T05:23:39;19.50;99.90
8715;DHT22;4394;51.208;8.904;2023-07-29T05:26:27;19.50;99.90
8715;DHT22;4394;51.208;8.904;2023-07-29T05:29:15;19.50;99.90
8715;DHT22;4394;51.208;8.904;2023-07-29T05:32:04;19.60;99.90
8715;DHT22;4394;51.208;8.904;2023-07-29T05:34:52;19.60;99.90
8715;DHT22;4394;51.208;8.904;2023-07-29T05:37:41;19.60;99.90
8715;DHT22;4394;51.208;8.904;2023-07-29T05:40:29;19.60;99.90
8715;DHT22;4394;51.208;8.904;2023-07-29T05:43:17;19.60;99.90
8715;DHT22;4394;51.208;8.904;2023-07-29T05:46:06;19.60;99.90
8715;DHT22;4394;51.208;8.904;2023-07-29T05:48:54;19.50;99.90
8715;DHT22;4394;51.208;8.904;2023-07-29T05:51:42;19.60;99.90
8715;DHT22;4394;51.208;8.904;2023-07-29T05:54:31;19.60;99.90
8715;DHT22;4394;51.208;8.904;2023-07-29T05:57:19;19.50;99.90
8715;DHT22;4394;51.208;8.904;2023-07-29T06:00:08;19.50;99.90
8715;DHT22;4394;51.208;8.904;2023-07-29T06:02:56;19.60;99.90
8715;DHT22;4394;51.208;8.904;2023-07-29T06:05:45;19.60;99.90
8715;DHT22;4394;51.208;8.904;2023-07-29T06:08:33;19.60;99.90
8715;DHT22;4394;51.208;8.904;2023-07-29T06:11:23;19.60;99.90
8715;DHT22;4394;51.208;8.904;2023-07-29T06:14:11;19.60;99.90
8715;DHT22;4394;51.208;8.904;2023-07-29T06:16:59;19.60;99.90
8715;DHT22;4394;51.208;8.904;2023-07-29T06:19:47;19.60;99.90
8715;DHT22;4394;51.208;8.904;2023-07-29T06:22:35;19.60;99.90
8715;DHT22;4394;51.208;8.904;2023-07-29T06:25:23;19.60;99.90
8715;DHT22;4394;51.208;8.904;2023-07-29T06:28:13;19.60;99.90
8715;DHT22;4394;51.208;8.904;2023-07-29T06:31:01;19.70;99.90
8715;DHT22;4394;51.208;8.904;2023-07-29T06:33:49;19.70;99.90
8715;DHT22;4394;51.208;8.904;2023-07-29T06:36:38;19.80;99.90
8715;DHT22;4394;51.208;8.904;2023-07-29T06:39:26;19.80;99.90
8715;DHT22;4394;51.208;8.904;2023-07-29T06:42:14;19.90;99.90
8715;DHT22;4394;51.208;8.904;2023-07-29T06:45:04;19.90;99.90
8715;DHT22;4394;51.208;8.904;2023-07-29T06:47:53;19.90;99.90
8715;DHT22;4394;51.208;8.904;2023-07-29T06:50:41;19.90;99.90
8715;DHT22;4394;51.208;8.904;2023-07-29T06:53:29;19.90;99.90
8715;DHT22;4394;51.208;8.904;2023-07-29T06:56:20;19.90;99.90
8715;DHT22;4394;51.208;8.904;2023-07-29T06:59:09;20.00;99.90
8715;DHT22;4394;51.208;8.904;2023-07-29T07:01:58;20.00;99.90
8715;DHT22;4394;51.208;8.904;2023-07-29T07:04:47;20.00;99.90
8715;DHT22;4394;51.208;8.904;2023-07-29T07:07:35;20.00;99.90
8715;DHT22;4394;51.208;8.904;2023-07-29T07:10:23;20.00;99.90
8715;DHT22;4394;51.208;8.904;2023-07-29T07:13:11;20.00;99.90
8715;DHT22;4394;51.208;8.904;2023-07-29T07:15:59;20.00;99.90
8715;DHT22;4394;51.208;8.904;2023-07-29T07:18:49;20.00;99.90
8715;DHT22;4394;51.208;8.904;2023-07-29T07:21:37;20.00;99.90
8715;DHT22;4394;51.208;8.904;2023-07-29T07:24:25;20.00;99.90
8715;DHT22;4394;51.208;8.904;2023-07-29T07:27:14;20.00;99.90
8715;DHT22;4394;51.208;8.904;2023-07-29T07:30:02;20.10;99.90
8715;DHT22;4394;51.208;8.904;2023-07-29T07:32:50;20.50;99.90
8715;DHT22;4394;51.208;8.904;2023-07-29T07:35:40;20.40;99.90
8715;DHT22;4394;51.208;8.904;2023-07-29T07:38:29;20.40;99.90
8715;DHT22;4394;51.208;8.904;2023-07-29T07:41:17;20.30;99.90
8715;DHT22;4394;51.208;8.904;2023-07-29T07:44:05;20.30;99.90
8715;DHT22;4394;51.208;8.904;2023-07-29T07:46:53;20.30;99.90
8715;DHT22;4394;51.208;8.904;2023-07-29T07:49:41;20.30;99.90
8715;DHT22;4394;51.208;8.904;2023-07-29T07:52:30;20.30;99.90
8715;DHT22;4394;51.208;8.904;2023-07-29T07:55:19;20.30;99.90
8715;DHT22;4394;51.208;8.904;2023-07-29T07:58:07;20.30;99.90
8715;DHT22;4394;51.208;8.904;2023-07-29T08:01:01;20.30;99.90
8715;DHT22;4394;51.208;8.904;2023-07-29T08:03:49;20.30;99.90
8715;DHT22;4394;51.208;8.904;2023-07-29T08:06:37;20.40;99.90
8715;DHT22;4394;51.208;8.904;2023-07-29T08:09:27;20.40;99.90
8715;DHT22;4394;51.208;8.904;2023-07-29T08:12:15;20.40;99.90
8715;DHT22;4394;51.208;8.904;2023-07-29T08:15:06;20.80;99.90
8715;DHT22;4394;51.208;8.904;2023-07-29T08:17:55;20.70;99.90
8715;DHT22;4394;51.208;8.904;2023-07-29T08:20:51;20.60;99.90
8715;DHT22;4394;51.208;8.904;2023-07-29T08:23:40;20.50;99.90
8715;DHT22;4394;51.208;8.904;2023-07-29T08:26:30;21.00;99.90
8715;DHT22;4394;51.208;8.904;2023-07-29T08:29:18;20.80;99.90
8715;DHT22;4394;51.208;8.904;2023-07-29T08:32:06;20.70;99.90
8715;DHT22;4394;51.208;8.904;2023-07-29T08:34:54;20.70;99.90
8715;DHT22;4394;51.208;8.904;2023-07-29T08:37:42;20.80;99.90
8715;DHT22;4394;51.208;8.904;2023-07-29T08:40:31;20.80;99.90
8715;DHT22;4394;51.208;8.904;2023-07-29T08:43:28;20.80;99.90
8715;DHT22;4394;51.208;8.904;2023-07-29T08:46:17;20.90;99.90
8715;DHT22;4394;51.208;8.904;2023-07-29T08:49:06;21.00;99.90
8715;DHT22;4394;51.208;8.904;2023-07-29T08:51:56;21.20;99.90
8715;DHT22;4394;51.208;8.904;2023-07-29T08:54:45;21.30;99.90
8715;DHT22;4394;51.208;8.904;2023-07-29T08:57:34;21.40;99.90
8715;DHT22;4394;51.208;8.904;2023-07-29T09:00:24;21.50;99.90
8715;DHT22;4394;51.208;8.904;2023-07-29T09:03:13;21.50;99.90
8715;DHT22;4394;51.208;8.904;2023-07-29T09:06:02;21.60;99.90
8715;DHT22;4394;51.208;8.904;2023-07-29T09:08:50;21.70;99.90
8715;DHT22;4394;51.208;8.904;2023-07-29T09:11:39;21.80;99.90
8715;DHT22;4394;51.208;8.904;2023-07-29T09:14:27;21.80;99.90
8715;DHT22;4394;51.208;8.904;2023-07-29T09:17:16;21.80;99.90
8715;DHT22;4394;51.208;8.904;2023-07-29T09:20:06;21.80;99.90
8715;DHT22;4394;51.208;8.904;2023-07-29T09:22:59;21.80;99.90
8715;DHT22;4394;51.208;8.904;2023-07-29T09:25:47;21.80;99.90
8715;DHT22;4394;51.208;8.904;2023-07-29T09:28:37;21.80;99.90
8715;DHT22;4394;51.208;8.904;2023-07-29T09:31:27;21.80;99.90
8715;DHT22;4394;51.208;8.904;2023-07-29T09:34:16;21.80;99.90
8715;DHT22;4394;51.208;8.904;2023-07-29T09:37:05;21.90;99.90
8715;DHT22;4394;51.208;8.904;2023-07-29T09:39:53;22.10;99.90
8715;DHT22;4394;51.208;8.904;2023-07-29T09:42:48;22.10;99.90
8715;DHT22;4394;51.208;8.904;2023-07-29T09:45:37;22.20;99.90
8715;DHT22;4394;51.208;8.904;2023-07-29T09:48:26;22.30;99.90
8715;DHT22;4394;51.208;8.904;2023-07-29T09:51:16;22.20;99.90
8715;DHT22;4394;51.208;8.904;2023-07-29T09:54:04;22.20;99.90
8715;DHT22;4394;51.208;8.904;2023-07-29T09:56:52;22.20;99.90
8715;DHT22;4394;51.208;8.904;2023-07-29T09:59:42;22.30;99.90
8715;DHT22;4394;51.208;8.904;2023-07-29T10:02:33;22.30;99.90
8715;DHT22;4394;51.208;8.904;2023-07-29T10:05:22;22.40;99.90
8715;DHT22;4394;51.208;8.904;2023-07-29T10:08:12;22.30;99.90
8715;DHT22;4394;51.208;8.904;2023-07-29T10:11:01;22.40;99.90
8715;DHT22;4394;51.208;8.904;2023-07-29T10:13:50;22.30;99.90
8715;DHT22;4394;51.208;8.904;2023-07-29T10:16:53;22.40;99.90
8715;DHT22;4394;51.208;8.904;2023-07-29T10:19:44;22.50;99.90
8715;DHT22;4394;51.208;8.904;2023-07-29T10:22:35;22.60;99.90
8715;DHT22;4394;51.208;8.904;2023-07-29T10:25:25;22.70;99.90
8715;DHT22;4394;51.208;8.904;2023-07-29T10:28:18;22.70;99.90
8715;DHT22;4394;51.208;8.904;2023-07-29T10:31:08;22.80;99.90
8715;DHT22;4394;51.208;8.904;2023-07-29T10:33:56;22.90;99.90
8715;DHT22;4394;51.208;8.904;2023-07-29T10:36:45;23.00;99.90
8715;DHT22;4394;51.208;8.904;2023-07-29T10:39:38;22.90;99.90
8715;DHT22;4394;51.208;8.904;2023-07-29T10:42:28;22.80;99.90
8715;DHT22;4394;51.208;8.904;2023-07-29T10:45:20;22.80;99.90
8715;DHT22;4394;51.208;8.904;2023-07-29T10:48:10;22.80;99.90
8715;DHT22;4394;51.208;8.904;2023-07-29T10:51:27;23.00;99.90
8715;DHT22;4394;51.208;8.904;2023-07-29T10:54:17;23.10;99.90
8715;DHT22;4394;51.208;8.904;2023-07-29T10:57:05;23.00;99.90
8715;DHT22;4394;51.208;8.904;2023-07-29T10:59:56;22.90;99.90
8715;DHT22;4394;51.208;8.904;2023-07-29T11:02:56;23.00;99.90
8715;DHT22;4394;51.208;8.904;2023-07-29T11:05:50;22.80;99.90
8715;DHT22;4394;51.208;8.904;2023-07-29T11:08:39;22.70;99.90
8715;DHT22;4394;51.208;8.904;2023-07-29T11:11:27;22.80;99.90
8715;DHT22;4394;51.208;8.904;2023-07-29T11:14:15;22.80;99.90
8715;DHT22;4394;51.208;8.904;2023-07-29T11:17:05;22.70;99.90
8715;DHT22;4394;51.208;8.904;2023-07-29T11:19:59;22.70;99.90
8715;DHT22;4394;51.208;8.904;2023-07-29T11:22:48;22.80;99.90
8715;DHT22;4394;51.208;8.904;2023-07-29T11:25:36;22.70;99.90
8715;DHT22;4394;51.208;8.904;2023-07-29T11:28:25;22.50;99.90
8715;DHT22;4394;51.208;8.904;2023-07-29T11:31:13;22.50;99.90
8715;DHT22;4394;51.208;8.904;2023-07-29T11:34:07;22.40;99.90
8715;DHT22;4394;51.208;8.904;2023-07-29T11:36:55;22.30;99.90
8715;DHT22;4394;51.208;8.904;2023-07-29T11:39:44;22.20;99.90
8715;DHT22;4394;51.208;8.904;2023-07-29T11:42:33;22.10;99.90
8715;DHT22;4394;51.208;8.904;2023-07-29T11:45:22;22.10;99.90
8715;DHT22;4394;51.208;8.904;2023-07-29T11:48:28;22.10;99.90
8715;DHT22;4394;51.208;8.904;2023-07-29T11:51:18;22.10;99.90
8715;DHT22;4394;51.208;8.904;2023-07-29T11:54:06;22.10;99.90
8715;DHT22;4394;51.208;8.904;2023-07-29T11:56:55;22.10;99.90
8715;DHT22;4394;51.208;8.904;2023-07-29T11:59:43;22.20;99.90
8715;DHT22;4394;51.208;8.904;2023-07-29T12:02:32;22.30;99.90
8715;DHT22;4394;51.208;8.904;2023-07-29T12:05:21;22.40;99.90
8715;DHT22;4394;51.208;8.904;2023-07-29T12:08:11;22.50;99.90
8715;DHT22;4394;51.208;8.904;2023-07-29T12:10:59;22.50;99.90
8715;DHT22;4394;51.208;8.904;2023-07-29T12:13:48;22.50;99.90
8715;DHT22;4394;51.208;8.904;2023-07-29T12:16:40;22.50;99.90
8715;DHT22;4394;51.208;8.904;2023-07-29T12:19:32;22.30;99.90
8715;DHT22;4394;51.208;8.904;2023-07-29T12:22:22;22.30;99.90
8715;DHT22;4394;51.208;8.904;2023-07-29T12:25:13;22.20;99.90
8715;DHT22;4394;51.208;8.904;2023-07-29T12:28:05;22.30;99.90
8715;DHT22;4394;51.208;8.904;2023-07-29T12:30:54;22.60;99.90
8715;DHT22;4394;51.208;8.904;2023-07-29T12:33:42;22.40;99.90
8715;DHT22;4394;51.208;8.904;2023-07-29T12:36:42;22.40;99.90
8715;DHT22;4394;51.208;8.904;2023-07-29T12:39:32;22.40;99.90
8715;DHT22;4394;51.208;8.904;2023-07-29T12:42:21;22.70;99.90
8715;DHT22;4394;51.208;8.904;2023-07-29T12:45:09;22.60;99.90
8715;DHT22;4394;51.208;8.904;2023-07-29T12:47:58;22.60;99.90
8715;DHT22;4394;51.208;8.904;2023-07-29T12:50:46;22.70;99.90
8715;DHT22;4394;51.208;8.904;2023-07-29T12:53:34;22.70;99.90
8715;DHT22;4394;51.208;8.904;2023-07-29T12:56:22;22.80;99.90
8715;DHT22;4394;51.208;8.904;2023-07-29T12:59:11;22.90;99.90
8715;DHT22;4394;51.208;8.904;2023-07-29T13:01:59;23.00;99.90
8715;DHT22;4394;51.208;8.904;2023-07-29T13:04:47;23.10;99.90
8715;DHT22;4394;51.208;8.904;2023-07-29T13:07:36;23.10;99.90
8715;DHT22;4394;51.208;8.904;2023-07-29T13:10:24;23.00;99.90
8715;DHT22;4394;51.208;8.904;2023-07-29T13:13:12;22.90;99.90
8715;DHT22;4394;51.208;8.904;2023-07-29T13:16:01;22.80;99.90
8715;DHT22;4394;51.208;8.904;2023-07-29T13:18:49;22.80;99.90
8715;DHT22;4394;51.208;8.904;2023-07-29T13:21:38;22.80;99.90
8715;DHT22;4394;51.208;8.904;2023-07-29T13:24:26;22.80;99.90
8715;DHT22;4394;51.208;8.904;2023-07-29T13:27:14;22.90;99.90
8715;DHT22;4394;51.208;8.904;2023-07-29T13:30:02;22.90;99.90
8715;DHT22;4394;51.208;8.904;2023-07-29T13:32:51;22.90;99.90
8715;DHT22;4394;51.208;8.904;2023-07-29T13:35:40;22.80;99.90
8715;DHT22;4394;51.208;8.904;2023-07-29T13:38:28;22.80;99.90
8715;DHT22;4394;51.208;8.904;2023-07-29T13:41:16;22.80;99.90
8715;DHT22;4394;51.208;8.904;2023-07-29T13:44:04;22.70;99.90
8715;DHT22;4394;51.208;8.904;2023-07-29T13:46:52;22.70;99.90
8715;DHT22;4394;51.208;8.904;2023-07-29T13:49:42;22.60;99.90
8715;DHT22;4394;51.208;8.904;2023-07-29T13:52:30;22.60;99.90
8715;DHT22;4394;51.208;8.904;2023-07-29T13:55:18;22.60;99.90
8715;DHT22;4394;51.208;8.904;2023-07-29T13:58:06;22.70;99.90
8715;DHT22;4394;51.208;8.904;2023-07-29T14:00:57;22.70;99.90
8715;DHT22;4394;51.208;8.904;2023-07-29T14:03:46;22.50;99.90
8715;DHT22;4394;51.208;8.904;2023-07-29T14:06:35;22.40;99.90
8715;DHT22;4394;51.208;8.904;2023-07-29T14:09:32;22.40;99.90
8715;DHT22;4394;51.208;8.904;2023-07-29T14:12:20;22.40;99.90
8715;DHT22;4394;51.208;8.904;2023-07-29T14:15:08;22.40;99.90
8715;DHT22;4394;51.208;8.904;2023-07-29T14:17:56;22.50;99.90
8715;DHT22;4394;51.208;8.904;2023-07-29T14:20:44;22.50;99.90
8715;DHT22;4394;51.208;8.904;2023-07-29T14:23:34;22.60;99.90
8715;DHT22;4394;51.208;8.904;2023-07-29T14:26:22;22.70;99.90
8715;DHT22;4394;51.208;8.904;2023-07-29T14:29:10;22.70;99.90
8715;DHT22;4394;51.208;8.904;2023-07-29T14:31:59;22.70;99.90
8715;DHT22;4394;51.208;8.904;2023-07-29T14:34:47;22.80;99.90
8715;DHT22;4394;51.208;8.904;2023-07-29T14:37:35;22.90;99.90
8715;DHT22;4394;51.208;8.904;2023-07-29T14:40:25;23.10;99.90
8715;DHT22;4394;51.208;8.904;2023-07-29T14:43:14;23.30;99.90
8715;DHT22;4394;51.208;8.904;2023-07-29T14:46:02;23.40;99.90
8715;DHT22;4394;51.208;8.904;2023-07-29T14:48:50;23.50;99.90
8715;DHT22;4394;51.208;8.904;2023-07-29T14:51:38;23.50;99.90
8715;DHT22;4394;51.208;8.904;2023-07-29T14:54:26;23.50;99.90
8715;DHT22;4394;51.208;8.904;2023-07-29T14:57:17;23.70;99.90
8715;DHT22;4394;51.208;8.904;2023-07-29T15:00:06;23.90;99.90
8715;DHT22;4394;51.208;8.904;2023-07-29T15:02:55;24.10;99.90
8715;DHT22;4394;51.208;8.904;2023-07-29T15:05:43;24.00;99.90
8715;DHT22;4394;51.208;8.904;2023-07-29T15:08:31;24.00;99.90
8715;DHT22;4394;51.208;8.904;2023-07-29T15:11:19;23.90;99.90
8715;DHT22;4394;51.208;8.904;2023-07-29T15:14:09;23.90;99.90
8715;DHT22;4394;51.208;8.904;2023-07-29T15:16:57;24.10;99.90
8715;DHT22;4394;51.208;8.904;2023-07-29T15:19:45;24.20;99.90
8715;DHT22;4394;51.208;8.904;2023-07-29T15:22:40;24.10;99.90
8715;DHT22;4394;51.208;8.904;2023-07-29T15:25:28;24.00;99.90
8715;DHT22;4394;51.208;8.904;2023-07-29T15:28:16;24.00;99.90
8715;DHT22;4394;51.208;8.904;2023-07-29T15:31:06;23.90;99.90
8715;DHT22;4394;51.208;8.904;2023-07-29T15:33:54;24.00;99.90
8715;DHT22;4394;51.208;8.904;2023-07-29T15:36:42;24.20;99.90
8715;DHT22;4394;51.208;8.904;2023-07-29T15:39:30;24.20;99.90
8715;DHT22;4394;51.208;8.904;2023-07-29T15:42:18;24.30;99.90
8715;DHT22;4394;51.208;8.904;2023-07-29T15:45:08;24.30;99.90
8715;DHT22;4394;51.208;8.904;2023-07-29T15:47:57;24.20;99.90
8715;DHT22;4394;51.208;8.904;2023-07-29T15:50:45;24.30;99.90
8715;DHT22;4394;51.208;8.904;2023-07-29T15:53:34;24.50;99.90
8715;DHT22;4394;51.208;8.904;2023-07-29T15:56:22;24.70;99.90
8715;DHT22;4394;51.208;8.904;2023-07-29T15:59:10;24.70;99.90
8715;DHT22;4394;51.208;8.904;2023-07-29T16:01:58;24.70;99.90
8715;DHT22;4394;51.208;8.904;2023-07-29T16:04:48;24.60;99.90
8715;DHT22;4394;51.208;8.904;2023-07-29T16:07:36;24.40;99.90
8715;DHT22;4394;51.208;8.904;2023-07-29T16:10:24;24.30;99.90
8715;DHT22;4394;51.208;8.904;2023-07-29T16:13:12;24.20;99.90
8715;DHT22;4394;51.208;8.904;2023-07-29T16:16:05;24.20;99.90
8715;DHT22;4394;51.208;8.904;2023-07-29T16:18:53;24.00;99.90
8715;DHT22;4394;51.208;8.904;2023-07-29T16:21:42;23.90;99.90
8715;DHT22;4394;51.208;8.904;2023-07-29T16:24:30;23.80;99.90
8715;DHT22;4394;51.208;8.904;2023-07-29T16:27:19;23.90;99.90
8715;DHT22;4394;51.208;8.904;2023-07-29T16:30:09;23.80;99.90
8715;DHT22;4394;51.208;8.904;2023-07-29T16:32:58;23.80;99.90
8715;DHT22;4394;51.208;8.904;2023-07-29T16:35:46;23.90;99.90
8715;DHT22;4394;51.208;8.904;2023-07-29T16:38:35;23.90;99.90
8715;DHT22;4394;51.208;8.904;2023-07-29T16:41:23;24.00;99.90
8715;DHT22;4394;51.208;8.904;2023-07-29T16:44:31;23.90;99.90
8715;DHT22;4394;51.208;8.904;2023-07-29T16:47:20;23.80;99.90
8715;DHT22;4394;51.208;8.904;2023-07-29T16:50:09;23.70;99.90
8715;DHT22;4394;51.208;8.904;2023-07-29T16:52:57;23.50;99.90
8715;DHT22;4394;51.208;8.904;2023-07-29T16:55:47;23.40;99.90
8715;DHT22;4394;51.208;8.904;2023-07-29T16:58:35;23.40;99.90
8715;DHT22;4394;51.208;8.904;2023-07-29T17:01:23;23.50;99.90
8715;DHT22;4394;51.208;8.904;2023-07-29T17:04:11;23.60;99.90
8715;DHT22;4394;51.208;8.904;2023-07-29T17:06:59;23.80;99.90
8715;DHT22;4394;51.208;8.904;2023-07-29T17:09:47;24.00;99.90
8715;DHT22;4394;51.208;8.904;2023-07-29T17:12:36;24.30;99.90
8715;DHT22;4394;51.208;8.904;2023-07-29T17:15:25;24.40;99.90
8715;DHT22;4394;51.208;8.904;2023-07-29T17:18:13;24.40;99.90
8715;DHT22;4394;51.208;8.904;2023-07-29T17:21:01;24.40;99.90
8715;DHT22;4394;51.208;8.904;2023-07-29T17:23:49;24.40;99.90
8715;DHT22;4394;51.208;8.904;2023-07-29T17:26:38;24.50;99.90
8715;DHT22;4394;51.208;8.904;2023-07-29T17:29:27;24.60;99.90
8715;DHT22;4394;51.208;8.904;2023-07-29T17:32:15;24.70;99.90
8715;DHT22;4394;51.208;8.904;2023-07-29T17:35:04;24.80;99.90
8715;DHT22;4394;51.208;8.904;2023-07-29T17:37:52;24.80;99.90
8715;DHT22;4394;51.208;8.904;2023-07-29T17:40:40;24.80;99.90
8715;DHT22;4394;51.208;8.904;2023-07-29T17:43:28;24.80;99.90
8715;DHT22;4394;51.208;8.904;2023-07-29T17:46:18;24.80;99.90
8715;DHT22;4394;51.208;8.904;2023-07-29T17:49:06;24.90;99.90
8715;DHT22;4394;51.208;8.904;2023-07-29T17:51:55;24.90;99.90
8715;DHT22;4394;51.208;8.904;2023-07-29T17:54:43;25.50;99.90
8715;DHT22;4394;51.208;8.904;2023-07-29T17:57:31;25.40;99.90
8715;DHT22;4394;51.208;8.904;2023-07-29T18:00:19;25.30;99.90
8715;DHT22;4394;51.208;8.904;2023-07-29T18:03:08;25.50;99.90
8715;DHT22;4394;51.208;8.904;2023-07-29T18:05:57;25.50;99.90
8715;DHT22;4394;51.208;8.904;2023-07-29T18:08:45;25.60;99.90
8715;DHT22;4394;51.208;8.904;2023-07-29T18:11:33;25.70;99.90
8715;DHT22;4394;51.208;8.904;2023-07-29T18:14:21;25.50;99.90
8715;DHT22;4394;51.208;8.904;2023-07-29T18:17:09;25.30;99.90
8715;DHT22;4394;51.208;8.904;2023-07-29T18:20:00;25.30;99.90
8715;DHT22;4394;51.208;8.904;2023-07-29T18:22:48;25.50;99.90
8715;DHT22;4394;51.208;8.904;2023-07-29T18:25:36;25.50;99.90